createdAt,value
2023-05-06T00:00:15.069Z,54.01
2023-05-06T00:01:15.061Z,53.49
2023-05-06T00:02:16.061Z,53.41
2023-05-06T00:03:15.154Z,53.70
2023-05-06T00:04:15.121Z,53.39
2023-05-06T00:05:15.049Z,53.34
2023-05-06T00:06:15.087Z,53.44
2023-05-06T00:07:15.069Z,53.61
2023-05-06T00:08:15.050Z,53.42
2023-05-06T00:09:15.046Z,53.64
2023-05-06T00:10:14.999Z,53.56
2023-05-06T00:11:15.016Z,53.82
2023-05-06T00:12:15.010Z,54.21
2023-05-06T00:13:15.108Z,53.88
2023-05-06T00:14:14.972Z,53.90
2023-05-06T00:15:14.958Z,53.91
2023-05-06T00:16:15.039Z,53.84
2023-05-06T00:17:14.976Z,54.05
2023-05-06T00:18:15.077Z,53.97
2023-05-06T00:19:15.060Z,54.07
2023-05-06T00:20:15.122Z,53.84
2023-05-06T00:21:15.175Z,53.74
2023-05-06T00:22:15.183Z,53.69
2023-05-06T00:23:15.282Z,53.59
2023-05-06T00:24:15.302Z,53.93
2023-05-06T00:25:15.385Z,53.97
2023-05-06T00:26:15.411Z,53.62
2023-05-06T00:27:15.424Z,53.86
2023-05-06T00:28:15.504Z,54.05
2023-05-06T00:29:15.556Z,54.06
2023-05-06T00:30:15.615Z,53.77
2023-05-06T00:31:15.730Z,53.86
2023-05-06T00:32:15.718Z,53.65
2023-05-06T00:33:15.781Z,53.56
2023-05-06T00:34:15.848Z,53.66
2023-05-06T00:35:15.899Z,53.74
2023-05-06T00:36:15.972Z,53.96
2023-05-06T00:37:16.012Z,54.23
2023-05-06T00:38:16.081Z,54.45
2023-05-06T00:39:16.088Z,54.36
2023-05-06T00:40:16.130Z,54.49
2023-05-06T00:41:16.233Z,54.58
2023-05-06T00:42:16.222Z,54.49
2023-05-06T00:43:16.263Z,54.43
2023-05-06T00:44:16.322Z,54.59
2023-05-06T00:45:16.335Z,54.50
2023-05-06T00:46:16.467Z,54.45
2023-05-06T00:47:16.432Z,54.75
2023-05-06T00:48:16.757Z,54.48
2023-05-06T00:49:16.558Z,54.48
2023-05-06T00:50:16.625Z,54.56
2023-05-06T00:51:16.685Z,54.47
2023-05-06T00:52:16.740Z,54.67
2023-05-06T00:53:16.733Z,54.73
2023-05-06T00:54:16.802Z,54.82
2023-05-06T00:55:16.926Z,54.74
2023-05-06T00:56:17.863Z,54.65
2023-05-06T00:57:16.983Z,54.84
2023-05-06T00:58:17.074Z,54.66
2023-05-06T00:59:17.128Z,54.70
2023-05-06T01:00:17.183Z,54.86
2023-05-06T01:01:17.291Z,54.72
2023-05-06T01:02:17.316Z,54.72
2023-05-06T01:03:17.381Z,54.57
2023-05-06T01:04:17.385Z,54.51
2023-05-06T01:05:17.469Z,54.45
2023-05-06T01:06:17.492Z,54.50
2023-05-06T01:07:17.559Z,54.44
2023-05-06T01:08:17.644Z,54.64
2023-05-06T01:09:17.699Z,54.50
2023-05-06T01:10:17.734Z,54.85
2023-05-06T01:11:17.872Z,54.72
2023-05-06T01:12:17.850Z,54.56
2023-05-06T01:13:18.709Z,54.62
2023-05-06T01:14:18.000Z,54.35
2023-05-06T01:15:18.086Z,54.34
2023-05-06T01:16:18.170Z,54.28
2023-05-06T01:17:18.285Z,54.13
2023-05-06T01:18:18.258Z,54.10
2023-05-06T01:19:18.327Z,54.27
2023-05-06T01:20:18.386Z,54.05
2023-05-06T01:21:18.421Z,54.02
2023-05-06T01:22:18.440Z,54.04
2023-05-06T01:23:18.498Z,53.85
2023-05-06T01:24:18.499Z,53.97
2023-05-06T01:25:18.502Z,54.08
2023-05-06T01:26:18.500Z,53.78
2023-05-06T01:27:18.528Z,53.73
2023-05-06T01:28:18.459Z,53.80
2023-05-06T01:29:18.528Z,54.19
2023-05-06T01:30:18.545Z,54.00
2023-05-06T01:31:18.580Z,54.18
2023-05-06T01:32:18.543Z,54.20
2023-05-06T01:33:18.565Z,54.28
2023-05-06T01:34:18.601Z,54.11
2023-05-06T01:35:18.603Z,53.96
2023-05-06T01:36:18.718Z,53.81
2023-05-06T01:37:18.705Z,53.61
2023-05-06T01:38:18.718Z,53.58
2023-05-06T01:39:18.742Z,53.61
2023-05-06T01:40:18.773Z,53.78
2023-05-06T01:41:18.821Z,53.91
2023-05-06T01:42:18.879Z,54.21
2023-05-06T01:43:18.972Z,54.23
2023-05-06T01:44:18.971Z,54.21
2023-05-06T01:45:19.009Z,54.15
2023-05-06T01:46:19.110Z,54.19
2023-05-06T01:47:19.068Z,54.37
2023-05-06T01:48:19.113Z,54.46
2023-05-06T01:49:19.117Z,54.17
2023-05-06T01:50:19.154Z,54.44
2023-05-06T01:51:19.218Z,54.50
2023-05-06T01:52:19.183Z,54.49
2023-05-06T01:53:19.242Z,54.73
2023-05-06T01:54:19.291Z,54.71
2023-05-06T01:55:19.329Z,54.67
2023-05-06T01:56:19.315Z,54.67
2023-05-06T01:57:19.374Z,54.56
2023-05-06T01:58:19.400Z,54.55
2023-05-06T01:59:19.525Z,54.48
2023-05-06T02:00:19.480Z,54.59
2023-05-06T02:01:19.540Z,54.79
2023-05-06T02:02:19.539Z,54.68
2023-05-06T02:03:19.681Z,54.61
2023-05-06T02:04:19.606Z,54.45
2023-05-06T02:05:19.623Z,54.50
2023-05-06T02:06:19.658Z,54.42
2023-05-06T02:07:19.657Z,54.40
2023-05-06T02:08:19.690Z,54.48
2023-05-06T02:09:19.712Z,54.40
2023-05-06T02:10:19.742Z,54.32
2023-05-06T02:11:19.791Z,54.78
2023-05-06T02:12:19.796Z,54.56
2023-05-06T02:13:19.884Z,54.49
2023-05-06T02:14:19.865Z,54.75
2023-05-06T02:15:19.993Z,54.46
2023-05-06T02:16:19.937Z,54.48
2023-05-06T02:17:19.923Z,54.65
2023-05-06T02:18:19.991Z,54.70
2023-05-06T02:19:20.002Z,54.80
2023-05-06T02:20:20.018Z,54.56
2023-05-06T02:21:20.096Z,54.67
2023-05-06T02:22:20.147Z,54.80
2023-05-06T02:23:20.178Z,54.76
2023-05-06T02:24:20.208Z,54.77
2023-05-06T02:25:20.242Z,54.78
2023-05-06T02:26:20.360Z,54.77
2023-05-06T02:27:20.368Z,54.98
2023-05-06T02:28:20.411Z,54.79
2023-05-06T02:29:20.449Z,54.64
2023-05-06T02:30:20.495Z,54.64
2023-05-06T02:31:20.662Z,54.51
2023-05-06T02:32:20.654Z,54.63
2023-05-06T02:33:20.702Z,54.70
2023-05-06T02:34:20.735Z,54.72
2023-05-06T02:35:20.817Z,54.79
2023-05-06T02:36:20.851Z,54.99
2023-05-06T02:37:20.912Z,55.26
2023-05-06T02:38:20.989Z,55.11
2023-05-06T02:39:21.024Z,54.94
2023-05-06T02:40:21.076Z,54.86
2023-05-06T02:41:21.130Z,54.94
2023-05-06T02:42:21.293Z,54.92
2023-05-06T02:43:21.191Z,55.18
2023-05-06T02:44:21.232Z,55.05
2023-05-06T02:45:21.251Z,55.02
2023-05-06T02:46:21.359Z,55.13
2023-05-06T02:47:21.518Z,55.38
2023-05-06T02:48:21.325Z,55.28
2023-05-06T02:49:21.387Z,55.18
2023-05-06T02:50:21.447Z,54.97
2023-05-06T02:51:21.445Z,55.07
2023-05-06T02:52:21.484Z,55.15
2023-05-06T02:53:21.527Z,55.29
2023-05-06T02:54:21.566Z,55.48
2023-05-06T02:55:21.576Z,55.41
2023-05-06T02:56:21.658Z,55.43
2023-05-06T02:57:21.621Z,55.40
2023-05-06T02:58:21.636Z,55.30
2023-05-06T02:59:21.657Z,55.18
2023-05-06T03:00:21.725Z,55.06
2023-05-06T03:01:21.758Z,54.99
2023-05-06T03:02:21.807Z,55.03
2023-05-06T03:03:21.780Z,55.01
2023-05-06T03:04:21.864Z,55.03
2023-05-06T03:05:21.808Z,55.04
2023-05-06T03:06:21.860Z,55.10
2023-05-06T03:07:21.902Z,55.06
2023-05-06T03:08:22.010Z,55.04
2023-05-06T03:09:21.992Z,54.91
2023-05-06T03:10:22.756Z,54.88
2023-05-06T03:11:22.102Z,55.00
2023-05-06T03:12:22.179Z,55.15
2023-05-06T03:13:22.263Z,54.92
2023-05-06T03:14:22.291Z,54.94
2023-05-06T03:15:22.316Z,54.80
2023-05-06T03:16:22.376Z,54.88
2023-05-06T03:17:22.410Z,54.77
2023-05-06T03:18:22.451Z,54.85
2023-05-06T03:19:22.611Z,54.69
2023-05-06T03:20:22.541Z,54.71
2023-05-06T03:21:22.730Z,54.79
2023-05-06T03:22:22.635Z,54.99
2023-05-06T03:23:22.691Z,54.94
2023-05-06T03:24:22.740Z,54.93
2023-05-06T03:25:22.755Z,54.75
2023-05-06T03:26:22.860Z,54.62
2023-05-06T03:27:22.873Z,54.56
2023-05-06T03:28:22.916Z,54.47
2023-05-06T03:29:22.980Z,54.28
2023-05-06T03:30:23.056Z,54.24
2023-05-06T03:31:23.162Z,54.39
2023-05-06T03:32:23.246Z,54.29
2023-05-06T03:33:23.232Z,54.26
2023-05-06T03:34:23.292Z,54.43
2023-05-06T03:35:23.361Z,54.63
2023-05-06T03:36:23.388Z,54.49
2023-05-06T03:37:23.501Z,54.40
2023-05-06T03:38:23.522Z,54.22
2023-05-06T03:39:23.579Z,54.36
2023-05-06T03:40:23.658Z,54.51
2023-05-06T03:41:23.706Z,54.45
2023-05-06T03:42:23.758Z,54.47
2023-05-06T03:43:23.787Z,54.44
2023-05-06T03:44:23.864Z,54.34
2023-05-06T03:45:23.912Z,54.37
2023-05-06T03:46:24.092Z,54.17
2023-05-06T03:47:24.070Z,54.03
2023-05-06T03:48:24.093Z,54.07
2023-05-06T03:49:24.158Z,54.44
2023-05-06T03:50:24.232Z,54.53
2023-05-06T03:51:24.339Z,54.50
2023-05-06T03:52:24.432Z,54.50
2023-05-06T03:53:24.408Z,54.53
2023-05-06T03:54:24.487Z,54.29
2023-05-06T03:55:24.560Z,54.43
2023-05-06T03:56:24.635Z,54.48
2023-05-06T03:57:24.648Z,54.62
2023-05-06T03:58:24.726Z,54.68
2023-05-06T03:59:24.795Z,54.98
2023-05-06T04:00:24.839Z,54.84
2023-05-06T04:01:24.920Z,54.83
2023-05-06T04:02:25.054Z,54.68
2023-05-06T04:03:25.078Z,54.65
2023-05-06T04:04:25.054Z,54.91
2023-05-06T04:05:25.086Z,54.70
2023-05-06T04:06:25.186Z,54.70
2023-05-06T04:07:25.248Z,54.52
2023-05-06T04:08:25.261Z,54.40
2023-05-06T04:09:25.316Z,54.40
2023-05-06T04:10:25.397Z,54.25
2023-05-06T04:11:25.456Z,54.23
2023-05-06T04:12:25.489Z,54.16
2023-05-06T04:13:26.262Z,54.11
2023-05-06T04:14:25.604Z,54.32
2023-05-06T04:15:25.707Z,54.35
2023-05-06T04:16:25.809Z,54.36
2023-05-06T04:17:25.895Z,54.60
2023-05-06T04:18:25.851Z,54.41
2023-05-06T04:19:25.888Z,54.40
2023-05-06T04:20:25.956Z,54.69
2023-05-06T04:21:26.019Z,54.58
2023-05-06T04:22:26.101Z,54.74
2023-05-06T04:23:26.218Z,54.77
2023-05-06T04:24:26.189Z,54.86
2023-05-06T04:25:26.230Z,55.13
2023-05-06T04:26:26.309Z,54.97
2023-05-06T04:27:26.341Z,54.98
2023-05-06T04:28:26.384Z,54.90
2023-05-06T04:29:26.437Z,54.80
2023-05-06T04:30:26.489Z,54.87
2023-05-06T04:31:26.590Z,54.96
2023-05-06T04:32:26.621Z,54.71
2023-05-06T04:33:26.651Z,54.57
2023-05-06T04:34:26.708Z,54.90
2023-05-06T04:35:26.820Z,54.79
2023-05-06T04:36:26.870Z,54.93
2023-05-06T04:37:26.905Z,55.00
2023-05-06T04:38:26.937Z,55.22
2023-05-06T04:39:27.034Z,55.02
2023-05-06T04:40:27.049Z,54.65
2023-05-06T04:41:27.113Z,54.53
2023-05-06T04:42:27.164Z,54.59
2023-05-06T04:43:27.202Z,54.52
2023-05-06T04:44:27.292Z,54.76
2023-05-06T04:45:27.345Z,54.77
2023-05-06T04:46:27.410Z,54.76
2023-05-06T04:47:27.462Z,54.71
2023-05-06T04:48:27.513Z,54.69
2023-05-06T04:49:27.582Z,54.30
2023-05-06T04:50:27.630Z,54.15
2023-05-06T04:51:27.632Z,54.17
2023-05-06T04:52:27.637Z,54.34
2023-05-06T04:53:27.676Z,54.33
2023-05-06T04:54:27.760Z,54.49
2023-05-06T04:55:27.882Z,54.75
2023-05-06T04:56:27.870Z,54.65
2023-05-06T04:57:27.878Z,54.55
2023-05-06T04:58:27.943Z,54.44
2023-05-06T04:59:27.993Z,54.49
2023-05-06T05:00:28.062Z,54.58
2023-05-06T05:01:28.196Z,54.53
2023-05-06T05:02:28.252Z,54.30
2023-05-06T05:03:28.243Z,53.99
2023-05-06T05:04:28.186Z,54.28
2023-05-06T05:05:28.204Z,54.37
2023-05-06T05:06:28.250Z,54.32
2023-05-06T05:07:28.323Z,54.46
2023-05-06T05:08:28.361Z,54.49
2023-05-06T05:09:28.454Z,54.50
2023-05-06T05:10:28.431Z,54.62
2023-05-06T05:11:28.527Z,54.42
2023-05-06T05:12:28.594Z,54.29
2023-05-06T05:13:28.605Z,54.18
2023-05-06T05:14:28.715Z,54.00
2023-05-06T05:15:28.786Z,54.01
2023-05-06T05:16:28.897Z,54.22
2023-05-06T05:17:28.925Z,54.23
2023-05-06T05:18:28.941Z,54.31
2023-05-06T05:19:29.012Z,54.39
2023-05-06T05:20:29.056Z,54.28
2023-05-06T05:21:29.121Z,54.51
2023-05-06T05:22:29.177Z,54.49
2023-05-06T05:23:29.240Z,54.47
2023-05-06T05:24:29.298Z,54.56
2023-05-06T05:25:29.360Z,54.59
2023-05-06T05:26:29.407Z,54.84
2023-05-06T05:27:29.493Z,54.58
2023-05-06T05:28:29.436Z,54.10
2023-05-06T05:29:29.433Z,54.39
2023-05-06T05:30:29.508Z,54.28
2023-05-06T05:31:29.578Z,54.16
2023-05-06T05:32:29.595Z,54.21
2023-05-06T05:33:29.597Z,54.08
2023-05-06T05:34:29.623Z,54.10
2023-05-06T05:35:29.626Z,54.18
2023-05-06T05:36:29.674Z,54.14
2023-05-06T05:37:29.655Z,53.86
2023-05-06T05:38:29.693Z,54.04
2023-05-06T05:39:29.706Z,53.91
2023-05-06T05:40:29.694Z,53.68
2023-05-06T05:41:29.782Z,53.60
2023-05-06T05:42:29.769Z,53.40
2023-05-06T05:43:29.840Z,53.49
2023-05-06T05:44:29.836Z,53.87
2023-05-06T05:45:29.855Z,54.14
2023-05-06T05:46:29.983Z,53.86
2023-05-06T05:47:29.989Z,53.56
2023-05-06T05:48:30.046Z,54.03
2023-05-06T05:49:30.093Z,54.18
2023-05-06T05:50:30.098Z,54.15
2023-05-06T05:51:30.204Z,54.20
2023-05-06T05:52:30.202Z,54.26
2023-05-06T05:53:30.249Z,54.57
2023-05-06T05:54:30.276Z,54.37
2023-05-06T05:55:30.371Z,54.79
2023-05-06T05:56:30.391Z,54.46
2023-05-06T05:57:30.393Z,54.35
2023-05-06T05:58:30.413Z,53.99
2023-05-06T05:59:30.479Z,54.02
2023-05-06T06:00:30.509Z,53.98
2023-05-06T06:01:30.534Z,53.96
2023-05-06T06:02:30.588Z,53.65
2023-05-06T06:03:30.675Z,53.46
2023-05-06T06:04:30.605Z,53.42
2023-05-06T06:05:30.553Z,53.37
2023-05-06T06:06:30.601Z,53.29
2023-05-06T06:07:30.608Z,53.88
2023-05-06T06:08:30.611Z,53.39
2023-05-06T06:09:30.652Z,53.38
2023-05-06T06:10:30.645Z,53.49
2023-05-06T06:11:30.635Z,53.26
2023-05-06T06:12:30.649Z,53.10
2023-05-06T06:13:30.776Z,53.02
2023-05-06T06:14:30.635Z,53.49
2023-05-06T06:15:30.669Z,53.73
2023-05-06T06:16:30.712Z,53.45
2023-05-06T06:17:30.694Z,53.37
2023-05-06T06:18:30.637Z,53.99
2023-05-06T06:19:30.652Z,53.80
2023-05-06T06:20:30.688Z,53.69
2023-05-06T06:21:30.711Z,53.93
2023-05-06T06:22:30.789Z,54.01
2023-05-06T06:23:30.821Z,54.18
2023-05-06T06:24:30.865Z,54.06
2023-05-06T06:25:30.977Z,53.67
2023-05-06T06:26:31.025Z,53.55
2023-05-06T06:27:31.100Z,53.46
2023-05-06T06:28:31.083Z,53.39
2023-05-06T06:29:31.126Z,53.57
2023-05-06T06:30:31.174Z,53.51
2023-05-06T06:31:31.306Z,53.40
2023-05-06T06:32:31.308Z,53.14
2023-05-06T06:33:31.300Z,53.33
2023-05-06T06:34:31.374Z,53.18
2023-05-06T06:35:31.430Z,53.03
2023-05-06T06:36:31.482Z,53.16
2023-05-06T06:37:31.538Z,53.29
2023-05-06T06:38:31.644Z,53.52
2023-05-06T06:39:31.726Z,53.43
2023-05-06T06:40:31.688Z,53.45
2023-05-06T06:41:31.777Z,53.51
2023-05-06T06:42:31.875Z,53.46
2023-05-06T06:43:31.880Z,53.11
2023-05-06T06:44:31.974Z,53.02
2023-05-06T06:45:32.004Z,52.79
2023-05-06T06:46:32.058Z,53.05
2023-05-06T06:47:32.219Z,52.98
2023-05-06T06:48:32.193Z,53.06
2023-05-06T06:49:32.234Z,53.34
2023-05-06T06:50:32.276Z,53.83
2023-05-06T06:51:32.339Z,53.76
2023-05-06T06:52:32.416Z,53.88
2023-05-06T06:53:32.410Z,53.46
2023-05-06T06:54:32.490Z,53.42
2023-05-06T06:55:32.584Z,53.49
2023-05-06T06:56:32.593Z,53.36
2023-05-06T06:57:32.609Z,53.21
2023-05-06T06:58:32.601Z,53.23
2023-05-06T06:59:32.607Z,53.42
2023-05-06T07:00:32.656Z,53.44
2023-05-06T07:01:32.688Z,53.20
2023-05-06T07:02:32.697Z,53.14
2023-05-06T07:03:32.717Z,52.37
2023-05-06T07:04:32.700Z,51.83
2023-05-06T07:05:32.704Z,51.86
2023-05-06T07:06:32.698Z,51.57
2023-05-06T07:07:32.758Z,51.30
2023-05-06T07:08:32.775Z,51.43
2023-05-06T07:09:35.045Z,51.47
2023-05-06T07:10:32.770Z,51.67
2023-05-06T07:11:32.735Z,51.30
2023-05-06T07:12:32.797Z,51.34
2023-05-06T07:13:32.734Z,51.29
2023-05-06T07:14:32.760Z,51.37
2023-05-06T07:15:32.725Z,50.48
2023-05-06T07:16:32.745Z,51.08
2023-05-06T07:17:32.750Z,50.86
2023-05-06T07:18:32.699Z,50.72
2023-05-06T07:19:32.731Z,51.02
2023-05-06T07:20:32.706Z,51.27
2023-05-06T07:21:32.701Z,50.61
2023-05-06T07:22:32.669Z,50.22
2023-05-06T07:23:32.691Z,50.48
2023-05-06T07:24:32.695Z,51.36
2023-05-06T07:25:33.597Z,51.29
2023-05-06T07:26:32.623Z,51.18
2023-05-06T07:27:32.630Z,50.55
2023-05-06T07:28:32.655Z,50.59
2023-05-06T07:29:32.635Z,50.20
2023-05-06T07:30:32.635Z,49.49
2023-05-06T07:31:32.664Z,49.02
2023-05-06T07:32:32.671Z,48.87
2023-05-06T07:33:32.563Z,49.10
2023-05-06T07:34:32.599Z,49.26
2023-05-06T07:35:32.652Z,49.15
2023-05-06T07:36:32.557Z,48.81
2023-05-06T07:37:32.561Z,49.60
2023-05-06T07:38:32.564Z,49.21
2023-05-06T07:39:32.578Z,48.92
2023-05-06T07:40:32.560Z,48.17
2023-05-06T07:41:32.530Z,49.08
2023-05-06T07:42:32.547Z,48.57
2023-05-06T07:43:32.492Z,48.38
2023-05-06T07:44:32.521Z,48.64
2023-05-06T07:45:32.527Z,48.65
2023-05-06T07:46:32.600Z,48.04
2023-05-06T07:47:32.688Z,47.47
2023-05-06T07:48:32.525Z,47.65
2023-05-06T07:49:32.504Z,47.12
2023-05-06T07:50:32.499Z,48.17
2023-05-06T07:51:32.492Z,47.57
2023-05-06T07:52:32.462Z,47.82
2023-05-06T07:53:32.425Z,47.46
2023-05-06T07:54:32.480Z,47.40
2023-05-06T07:55:35.017Z,47.31
2023-05-06T07:56:32.430Z,47.29
2023-05-06T07:57:32.453Z,48.23
2023-05-06T07:58:32.389Z,47.40
2023-05-06T07:59:32.421Z,47.33
2023-05-06T08:00:32.424Z,47.89
2023-05-06T08:01:32.375Z,47.45
2023-05-06T08:02:32.525Z,47.25
2023-05-06T08:03:32.576Z,47.35
2023-05-06T08:04:32.427Z,47.52
2023-05-06T08:05:32.336Z,47.87
2023-05-06T08:06:32.645Z,47.29
2023-05-06T08:07:32.555Z,47.61
2023-05-06T08:08:32.359Z,47.85
2023-05-06T08:09:32.368Z,47.21
2023-05-06T08:10:32.339Z,47.61
2023-05-06T08:11:32.306Z,47.83
2023-05-06T08:12:32.317Z,46.68
2023-05-06T08:13:32.319Z,46.51
2023-05-06T08:14:32.301Z,45.86
2023-05-06T08:15:32.295Z,45.31
2023-05-06T08:16:32.381Z,45.05
2023-05-06T08:17:32.359Z,45.05
2023-05-06T08:18:32.266Z,44.91
2023-05-06T08:19:32.244Z,44.81
2023-05-06T08:20:32.268Z,44.19
2023-05-06T08:21:32.255Z,43.43
2023-05-06T08:22:32.250Z,43.69
2023-05-06T08:23:32.289Z,43.88
2023-05-06T08:24:32.257Z,44.36
2023-05-06T08:25:32.190Z,44.92
2023-05-06T08:26:32.264Z,43.87
2023-05-06T08:27:32.214Z,43.60
2023-05-06T08:28:32.206Z,44.07
2023-05-06T08:29:32.216Z,44.24
2023-05-06T08:30:32.213Z,45.79
2023-05-06T08:31:32.266Z,44.87
2023-05-06T08:32:32.227Z,44.89
2023-05-06T08:33:32.140Z,44.42
2023-05-06T08:34:32.193Z,44.99
2023-05-06T08:35:32.170Z,44.45
2023-05-06T08:36:33.249Z,44.24
2023-05-06T08:37:32.225Z,43.77
2023-05-06T08:38:32.105Z,44.23
2023-05-06T08:39:32.164Z,44.40
2023-05-06T08:40:32.146Z,44.31
2023-05-06T08:41:32.144Z,44.90
2023-05-06T08:42:32.162Z,45.06
2023-05-06T08:43:32.116Z,45.38
2023-05-06T08:44:32.123Z,45.29
2023-05-06T08:45:32.125Z,45.21
2023-05-06T08:46:32.106Z,45.56
2023-05-06T08:47:32.138Z,45.50
2023-05-06T08:48:32.046Z,45.32
2023-05-06T08:49:32.081Z,45.26
2023-05-06T08:50:32.053Z,45.92
2023-05-06T08:51:32.069Z,44.87
2023-05-06T08:52:32.071Z,44.90
2023-05-06T08:53:32.051Z,44.74
2023-05-06T08:54:32.047Z,44.75
2023-05-06T08:55:32.062Z,45.05
2023-05-06T08:56:32.047Z,45.57
2023-05-06T08:57:32.117Z,45.78
2023-05-06T08:58:32.182Z,45.59
2023-05-06T08:59:32.189Z,46.54
2023-05-06T09:00:32.197Z,45.79
2023-05-06T09:01:32.317Z,45.96
2023-05-06T09:02:32.338Z,46.87
2023-05-06T09:03:32.424Z,46.60
2023-05-06T09:04:32.260Z,45.75
2023-05-06T09:05:32.278Z,45.29
2023-05-06T09:06:32.399Z,45.69
2023-05-06T09:07:32.491Z,45.68
2023-05-06T09:08:32.592Z,45.89
2023-05-06T09:09:32.676Z,45.45
2023-05-06T09:10:32.771Z,45.83
2023-05-06T09:11:32.772Z,46.22
2023-05-06T09:12:32.858Z,45.74
2023-05-06T09:13:32.832Z,45.82
2023-05-06T09:14:32.836Z,46.45
2023-05-06T09:15:32.915Z,45.84
2023-05-06T09:16:33.009Z,45.52
2023-05-06T09:17:33.104Z,45.71
2023-05-06T09:18:33.036Z,46.34
2023-05-06T09:19:33.150Z,46.51
2023-05-06T09:20:33.179Z,46.71
2023-05-06T09:21:33.201Z,46.88
2023-05-06T09:22:33.274Z,47.18
2023-05-06T09:23:33.316Z,47.42
2023-05-06T09:24:33.390Z,47.50
2023-05-06T09:25:33.456Z,47.31
2023-05-06T09:26:33.507Z,47.07
2023-05-06T09:27:33.558Z,47.42
2023-05-06T09:28:33.611Z,48.14
2023-05-06T09:29:33.700Z,48.49
2023-05-06T09:30:33.757Z,48.24
2023-05-06T09:31:33.851Z,48.35
2023-05-06T09:32:33.740Z,48.20
2023-05-06T09:33:33.712Z,48.29
2023-05-06T09:34:33.797Z,48.36
2023-05-06T09:35:33.725Z,48.52
2023-05-06T09:36:33.743Z,48.95
2023-05-06T09:37:33.730Z,49.29
2023-05-06T09:38:33.794Z,49.11
2023-05-06T09:39:33.797Z,49.13
2023-05-06T09:40:33.818Z,49.33
2023-05-06T09:41:33.857Z,49.31
2023-05-06T09:42:33.859Z,49.74
2023-05-06T09:43:33.926Z,50.02
2023-05-06T09:44:33.939Z,50.34
2023-05-06T09:45:33.988Z,50.37
2023-05-06T09:46:34.127Z,50.35
2023-05-06T09:47:34.091Z,50.61
2023-05-06T09:48:34.025Z,50.13
2023-05-06T09:49:34.103Z,50.48
2023-05-06T09:50:34.082Z,50.42
2023-05-06T09:51:34.185Z,50.21
2023-05-06T09:52:34.246Z,49.97
2023-05-06T09:53:34.250Z,49.87
2023-05-06T09:54:34.348Z,49.14
2023-05-06T09:55:34.356Z,49.07
2023-05-06T09:56:34.431Z,49.09
2023-05-06T09:57:34.440Z,48.74
2023-05-06T09:58:34.498Z,48.74
2023-05-06T09:59:34.553Z,49.10
2023-05-06T10:00:34.557Z,49.56
2023-05-06T10:01:37.311Z,49.74
2023-05-06T10:02:34.709Z,49.76
2023-05-06T10:03:34.690Z,49.49
2023-05-06T10:04:34.910Z,49.83
2023-05-06T10:05:34.597Z,49.96
2023-05-06T10:06:34.567Z,49.61
2023-05-06T10:07:34.549Z,50.18
2023-05-06T10:08:34.569Z,49.58
2023-05-06T10:09:34.567Z,48.69
2023-05-06T10:10:34.572Z,48.25
2023-05-06T10:11:34.526Z,48.52
2023-05-06T10:12:34.548Z,48.52
2023-05-06T10:13:34.515Z,48.45
2023-05-06T10:14:34.509Z,48.43
2023-05-06T10:15:34.522Z,48.11
2023-05-06T10:16:34.593Z,47.30
2023-05-06T10:17:34.585Z,47.36
2023-05-06T10:18:34.461Z,47.90
2023-05-06T10:19:34.511Z,46.76
2023-05-06T10:20:34.450Z,47.02
2023-05-06T10:21:34.470Z,47.23
2023-05-06T10:22:34.450Z,47.40
2023-05-06T10:23:34.422Z,47.23
2023-05-06T10:24:34.423Z,45.44
2023-05-06T10:25:34.464Z,46.31
2023-05-06T10:26:34.379Z,46.44
2023-05-06T10:27:34.434Z,44.87
2023-05-06T10:28:34.396Z,44.43
2023-05-06T10:29:34.425Z,44.20
2023-05-06T10:30:34.415Z,44.54
2023-05-06T10:31:34.484Z,46.16
2023-05-06T10:32:34.383Z,45.95
2023-05-06T10:33:34.360Z,44.24
2023-05-06T10:34:34.384Z,44.72
2023-05-06T10:35:34.336Z,45.33
2023-05-06T10:36:34.345Z,46.12
2023-05-06T10:37:34.362Z,45.87
2023-05-06T10:38:34.307Z,45.91
2023-05-06T10:39:34.314Z,44.61
2023-05-06T10:40:34.314Z,44.18
2023-05-06T10:41:34.339Z,44.11
2023-05-06T10:42:34.344Z,43.75
2023-05-06T10:43:34.334Z,44.22
2023-05-06T10:44:34.300Z,43.98
2023-05-06T10:45:34.334Z,44.20
2023-05-06T10:46:34.268Z,44.78
2023-05-06T10:47:34.277Z,44.77
2023-05-06T10:48:34.274Z,44.47
2023-05-06T10:49:34.273Z,43.14
2023-05-06T10:50:34.237Z,43.39
2023-05-06T10:51:34.248Z,43.74
2023-05-06T10:52:34.273Z,43.91
2023-05-06T10:53:34.189Z,44.37
2023-05-06T10:54:34.220Z,44.23
2023-05-06T10:55:34.209Z,44.11
2023-05-06T10:56:34.225Z,43.91
2023-05-06T10:57:34.221Z,44.11
2023-05-06T10:58:34.219Z,44.66
2023-05-06T10:59:34.196Z,44.09
2023-05-06T11:00:34.203Z,44.58
2023-05-06T11:01:34.187Z,44.91
2023-05-06T11:02:34.333Z,44.81
2023-05-06T11:03:34.440Z,43.91
2023-05-06T11:04:34.286Z,44.30
2023-05-06T11:05:34.342Z,44.19
2023-05-06T11:06:34.403Z,43.75
2023-05-06T11:07:34.499Z,44.02
2023-05-06T11:08:34.507Z,43.26
2023-05-06T11:09:34.538Z,43.18
2023-05-06T11:10:34.569Z,43.77
2023-05-06T11:11:34.582Z,42.89
2023-05-06T11:12:34.631Z,42.57
2023-05-06T11:13:34.696Z,42.20
2023-05-06T11:14:34.605Z,42.77
2023-05-06T11:15:34.610Z,42.38
2023-05-06T11:16:35.043Z,43.34
2023-05-06T11:17:34.776Z,44.09
2023-05-06T11:18:34.736Z,43.74
2023-05-06T11:19:34.852Z,43.53
2023-05-06T11:20:34.938Z,44.82
2023-05-06T11:21:34.932Z,43.60
2023-05-06T11:22:35.007Z,42.80
2023-05-06T11:23:35.016Z,42.67
2023-05-06T11:24:35.051Z,42.65
2023-05-06T11:25:35.109Z,43.14
2023-05-06T11:26:35.131Z,41.23
2023-05-06T11:27:35.161Z,41.76
2023-05-06T11:28:35.170Z,42.14
2023-05-06T11:29:35.234Z,42.88
2023-05-06T11:30:35.292Z,42.79
2023-05-06T11:31:35.361Z,42.58
2023-05-06T11:32:35.379Z,42.38
2023-05-06T11:33:35.454Z,42.58
2023-05-06T11:34:35.569Z,42.31
2023-05-06T11:35:35.658Z,42.67
2023-05-06T11:36:35.558Z,42.25
2023-05-06T11:37:35.662Z,42.52
2023-05-06T11:38:35.649Z,42.13
2023-05-06T11:39:40.544Z,42.68
2023-05-06T11:40:36.773Z,42.46
2023-05-06T11:41:35.730Z,42.36
2023-05-06T11:42:35.715Z,42.50
2023-05-06T11:43:35.712Z,43.16
2023-05-06T11:44:35.690Z,42.41
2023-05-06T11:46:13.589Z,41.72
2023-05-06T11:47:13.560Z,41.99
2023-05-06T11:48:13.490Z,41.23
2023-05-06T11:49:13.492Z,40.33
2023-05-06T11:50:13.493Z,40.93
2023-05-06T11:51:13.483Z,40.24
2023-05-06T11:52:13.516Z,40.69
2023-05-06T11:53:13.440Z,41.02
2023-05-06T11:54:13.451Z,40.23
2023-05-06T11:55:13.433Z,39.43
2023-05-06T11:56:13.434Z,39.22
2023-05-06T11:57:13.448Z,40.58
2023-05-06T11:58:13.465Z,39.70
2023-05-06T11:59:13.424Z,38.57
2023-05-06T12:00:13.510Z,39.63
2023-05-06T12:01:13.418Z,40.49
2023-05-06T12:02:13.468Z,38.92
2023-05-06T12:03:13.529Z,36.46
2023-05-06T12:04:13.470Z,37.57
2023-05-06T12:05:13.374Z,36.54
2023-05-06T12:06:13.383Z,38.29
2023-05-06T12:07:13.421Z,37.79
2023-05-06T12:08:23.568Z,37.46
2023-05-06T12:09:14.349Z,37.95
2023-05-06T12:10:13.505Z,37.78
2023-05-06T12:11:13.317Z,37.38
2023-05-06T12:12:13.371Z,37.20
2023-05-06T12:13:13.397Z,36.15
2023-05-06T12:14:13.317Z,35.83
2023-05-06T12:15:13.316Z,35.82
2023-05-06T12:16:13.356Z,34.91
2023-05-06T12:17:13.296Z,36.44
2023-05-06T12:18:13.281Z,36.13
2023-05-06T12:19:13.273Z,35.65
2023-05-06T12:20:13.401Z,35.06
2023-05-06T12:21:13.250Z,33.97
2023-05-06T12:22:13.300Z,32.95
2023-05-06T12:23:13.313Z,33.16
2023-05-06T12:24:13.283Z,32.93
2023-05-06T12:25:13.310Z,33.43
2023-05-06T12:26:13.314Z,34.49
2023-05-06T12:27:13.400Z,33.19
2023-05-06T12:28:13.449Z,32.54
2023-05-06T12:29:13.406Z,34.00
2023-05-06T12:30:13.617Z,34.77
2023-05-06T12:31:13.514Z,33.65
2023-05-06T12:32:13.588Z,32.73
2023-05-06T12:33:13.633Z,33.66
2023-05-06T12:34:13.647Z,31.83
2023-05-06T12:35:13.697Z,32.94
2023-05-06T12:36:13.718Z,33.82
2023-05-06T12:37:13.706Z,32.91
2023-05-06T12:38:13.745Z,33.01
2023-05-06T12:39:13.777Z,32.77
2023-05-06T12:40:13.840Z,32.59
2023-05-06T12:41:13.830Z,32.21
2023-05-06T12:42:13.864Z,31.96
2023-05-06T12:43:13.890Z,32.38
2023-05-06T12:44:13.900Z,30.98
2023-05-06T12:45:14.017Z,31.21
2023-05-06T12:46:14.043Z,32.02
2023-05-06T12:47:14.037Z,33.75
2023-05-06T12:48:14.102Z,31.28
2023-05-06T12:49:14.110Z,31.50
2023-05-06T12:50:14.162Z,31.48
2023-05-06T12:51:14.152Z,31.51
2023-05-06T12:52:14.237Z,32.62
2023-05-06T12:53:14.206Z,32.35